createdAt,value
2019-06-15T04:58:18.367Z,55.00
2019-06-15T05:01:23.591Z,54.60
2019-06-15T05:04:19.497Z,54.00
2019-06-15T05:07:19.313Z,54.30
2019-06-15T05:10:18.885Z,54.10
2019-06-15T05:13:25.593Z,53.70
2019-06-15T05:16:26.460Z,53.60
2019-06-15T05:19:22.332Z,53.10
2019-06-15T05:22:31.226Z,53.10
2019-06-15T05:25:26.408Z,53.20
2019-06-15T05:28:22.450Z,53.10
2019-06-15T05:31:18.260Z,52.90
2019-06-15T05:34:14.696Z,52.70
2019-06-15T05:37:10.357Z,52.60
2019-06-15T05:40:11.085Z,51.90
2019-06-15T05:47:04.218Z,51.70
2019-06-15T05:50:01.481Z,51.70
2019-06-15T05:53:12.668Z,51.70
2019-06-15T05:56:17.662Z,51.60
2019-06-15T05:59:17.371Z,51.60
2019-06-15T06:02:15.334Z,51.50
2019-06-15T06:05:16.962Z,51.80
2019-06-15T06:08:14.735Z,51.70
2019-06-15T06:11:10.752Z,51.50
2019-06-15T06:14:08.426Z,51.50
2019-06-15T06:17:08.068Z,51.40
2019-06-15T06:20:04.789Z,51.40
2019-06-15T06:23:02.620Z,51.10
2019-06-15T06:26:06.368Z,51.20
2019-06-15T06:29:04.731Z,51.10
2019-06-15T06:32:01.842Z,50.90
2019-06-15T06:34:59.746Z,50.80
2019-06-15T06:37:57.383Z,50.70
2019-06-15T06:40:56.026Z,50.60
2019-06-15T06:43:53.628Z,50.60
2019-06-15T06:46:48.800Z,50.60
2019-06-15T06:49:46.437Z,50.40
2019-06-15T06:52:42.081Z,50.30
2019-06-15T06:55:38.106Z,50.30
2019-06-15T06:58:33.847Z,50.10
2019-06-15T07:01:30.872Z,49.90
2019-06-15T08:26:10.712Z,49.50
2019-06-15T08:29:06.956Z,49.80
2019-06-15T08:32:03.568Z,49.70
2019-06-15T08:35:01.440Z,49.70
2019-06-15T08:37:57.419Z,50.30
2019-06-15T08:40:56.395Z,50.40
2019-06-15T08:44:08.427Z,50.30
2019-06-15T08:47:05.583Z,50.20
2019-06-15T08:50:01.724Z,50.00
2019-06-15T08:52:58.721Z,50.00
2019-06-15T08:55:58.548Z,49.70
2019-06-15T08:58:58.452Z,49.70
2019-06-15T09:01:54.618Z,49.70
2019-06-15T09:04:50.210Z,49.50
2019-06-15T09:07:48.912Z,49.40
2019-06-15T09:10:47.559Z,49.20
2019-06-15T09:13:46.026Z,49.00
2019-06-15T09:16:44.295Z,48.70
2019-06-15T09:19:42.145Z,48.60
2019-06-15T09:22:40.091Z,48.50
2019-06-15T09:25:38.429Z,48.70
2019-06-15T09:28:36.189Z,48.60
2019-06-15T09:31:35.289Z,48.70
2019-06-15T09:34:32.855Z,48.60
2019-06-15T09:37:30.874Z,48.50
2019-06-15T09:40:28.462Z,48.20
2019-06-15T09:43:24.332Z,48.10
2019-06-15T09:46:19.664Z,48.20
2019-06-15T09:49:21.895Z,48.50
2019-06-15T09:52:17.972Z,48.40
2019-06-15T09:55:15.986Z,48.50
2019-06-15T09:58:11.698Z,48.90
2019-06-15T10:01:07.219Z,48.70
2019-06-15T10:04:02.931Z,48.60
2019-06-15T10:06:58.705Z,48.70
2019-06-15T10:09:54.574Z,49.00
2019-06-15T10:13:03.654Z,48.80
2019-06-15T10:15:58.176Z,48.90
2019-06-15T10:19:00.539Z,48.60
2019-06-15T10:21:56.408Z,48.70
2019-06-15T10:24:52.659Z,48.60
2019-06-15T10:27:49.994Z,48.60
2019-06-15T10:30:46.704Z,48.40
2019-06-15T10:33:45.125Z,48.30
2019-06-15T10:36:45.358Z,48.10
2019-06-15T10:39:41.880Z,49.40
2019-06-15T10:42:39.462Z,48.70
2019-06-15T10:45:39.282Z,48.10
2019-06-15T10:48:39.137Z,47.80
2019-06-15T10:51:37.321Z,47.30
2019-06-15T10:54:34.454Z,46.50
2019-06-15T10:57:31.565Z,46.60
2019-06-15T11:00:28.884Z,46.00
2019-06-15T11:03:26.771Z,46.50
2019-06-15T11:06:24.050Z,47.10
2019-06-15T11:09:20.033Z,47.00
2019-06-15T11:12:16.072Z,46.80
2019-06-15T11:15:12.707Z,46.90
2019-06-15T11:18:09.097Z,47.20
2019-06-15T11:21:06.307Z,46.60
2019-06-15T11:24:01.853Z,46.80
2019-06-15T11:26:57.575Z,46.50
2019-06-15T11:29:54.264Z,46.80
2019-06-15T11:32:50.068Z,46.70
2019-06-15T11:35:47.725Z,47.00
2019-06-15T11:38:43.148Z,47.80
2019-06-15T11:41:41.229Z,47.60
2019-06-15T11:44:38.358Z,46.90
2019-06-15T11:47:35.870Z,47.40
2019-06-15T11:50:33.535Z,47.00
2019-06-15T11:53:32.583Z,47.70
2019-06-15T11:56:29.234Z,46.90
2019-06-15T11:59:26.063Z,46.60
2019-06-15T12:02:23.229Z,46.70
2019-06-15T12:05:21.029Z,46.70
2019-06-15T12:08:18.165Z,46.70
2019-06-15T12:11:13.932Z,46.30
2019-06-15T12:14:16.608Z,45.50
2019-06-15T12:17:14.816Z,45.40
2019-06-15T12:20:11.110Z,45.00
2019-06-15T12:23:07.268Z,45.20
2019-06-15T12:26:04.028Z,45.50
2019-06-15T12:29:01.535Z,45.90
2019-06-15T12:31:58.558Z,46.00
2019-06-15T12:34:56.352Z,46.10
2019-06-15T12:37:52.460Z,45.30
2019-06-15T12:40:50.596Z,46.20
2019-06-15T12:43:49.128Z,46.30
2019-06-15T12:46:48.545Z,45.40
2019-06-15T12:49:54.561Z,47.10
2019-06-15T12:52:53.001Z,47.40
2019-06-15T12:55:51.474Z,47.50
2019-06-15T12:58:50.595Z,47.90
2019-06-15T13:01:54.127Z,46.80
2019-06-15T13:04:50.219Z,47.10
2019-06-15T13:07:47.244Z,47.20
2019-06-15T13:10:43.981Z,47.00
2019-06-15T13:13:40.132Z,46.30
2019-06-15T13:16:39.703Z,47.30
2019-06-15T13:19:36.794Z,50.20
2019-06-15T13:22:34.047Z,50.60
2019-06-15T13:25:32.006Z,50.40
2019-06-15T13:28:29.941Z,51.00
2019-06-15T13:31:29.308Z,51.30
2019-06-15T13:34:26.559Z,51.00
2019-06-15T13:37:23.277Z,51.50
2019-06-15T13:40:20.906Z,51.50
2019-06-15T13:43:18.065Z,51.80
2019-06-15T13:46:15.993Z,52.00
2019-06-15T13:49:12.781Z,51.80
2019-06-15T13:52:09.886Z,52.50
